Time;durP1;ratioP1;P1;durP2;ratioP2;P2;SDS_P1;SDS_P2;PMS_P1;PMS_P2;Temp;Humidity;BMP_temperature;BMP_pressure;BME280_temperature;BME280_humidity;BME280_pressure;Samples;Min_cycle;Max_cycle;Signal;HPM_P1;HPM_P2
2024/01/07 00:00:20;;;;;;;;;54.00;42.00;;;;;6.49;100.00;98182.41;6276567;20;2858761;-51
2024/01/07 00:02:49;;;;;;;;;56.00;45.00;;;;;6.42;100.00;98174.94;6276729;20;2864866;-49
2024/01/07 00:05:17;;;;;;;;;49.00;42.00;;;;;6.60;100.00;98179.84;6274479;20;2497581;-54
2024/01/07 00:07:45;;;;;;;;;53.00;41.00;;;;;6.49;100.00;98184.22;6278309;20;2495069;-52
2024/01/07 00:10:14;;;;;;;;;51.50;41.00;;;;;6.41;100.00;98173.25;6275672;20;2839873;-50
2024/01/07 00:12:43;;;;;;;;;53.50;43.00;;;;;6.46;100.00;98171.13;6279279;20;2841961;-50
2024/01/07 00:15:12;;;;;;;;;57.50;44.00;;;;;6.46;100.00;98166.63;6278422;20;2863958;-50
2024/01/07 00:17:41;;;;;;;;;51.00;38.50;;;;;6.52;100.00;98166.19;6276851;20;2864938;-48
2024/01/07 00:20:11;;;;;;;;;52.67;41.33;;;;;6.40;100.00;98171.50;6275826;20;2866126;-49
2024/01/07 00:22:41;;;;;;;;;55.33;43.00;;;;;6.42;100.00;98169.59;6307245;20;2864955;-50
2024/01/07 00:25:10;;;;;;;;;52.00;43.33;;;;;6.55;100.00;98165.97;6306153;20;2864856;-49
2024/01/07 00:27:39;;;;;;;;;50.00;43.00;;;;;6.67;100.00;98164.28;6307036;20;2849369;-43
2024/01/07 00:30:08;;;;;;;;;53.00;41.50;;;;;6.55;100.00;98170.47;6276073;20;2856750;-43
2024/01/07 00:32:38;;;;;;;;;50.00;40.67;;;;;6.52;100.00;98165.34;6277580;20;2871099;-41
2024/01/07 00:35:06;;;;;;;;;51.00;42.50;;;;;6.44;100.00;98167.69;6307806;20;2855555;-40
2024/01/07 00:37:37;;;;;;;;;53.33;43.00;;;;;6.49;100.00;98165.56;6276918;20;2889884;-42
2024/01/07 00:40:07;;;;;;;;;51.33;43.33;;;;;6.53;100.00;98167.91;6308171;20;3599295;-42
2024/01/07 00:42:36;;;;;;;;;46.50;38.00;;;;;6.38;100.00;98175.16;6275696;20;2853416;-42
2024/01/07 00:45:06;;;;;;;;;46.00;38.50;;;;;6.70;100.00;98180.06;6275231;20;2842070;-42
2024/01/07 00:47:35;;;;;;;;;43.50;38.00;;;;;6.64;100.00;98177.84;6274217;20;2868081;-42
2024/01/07 00:50:05;;;;;;;;;36.00;35.00;;;;;6.50;100.00;98172.59;6276320;20;2859790;-43
2024/01/07 00:52:34;;;;;;;;;40.00;38.00;;;;;6.56;100.00;98181.03;6277060;20;2842984;-41
2024/01/07 00:55:06;;;;;;;;;47.00;39.50;;;;;6.48;100.00;98185.19;6276610;20;2848232;-42
2024/01/07 00:57:35;;;;;;;;;52.00;41.00;;;;;6.51;100.00;98180.50;6277222;20;2851323;-43
2024/01/07 01:00:07;;;;;;;;;37.00;35.33;;;;;6.53;100.00;98177.69;6307343;20;2852492;-43
2024/01/07 01:02:37;;;;;;;;;50.00;41.00;;;;;6.52;100.00;98170.69;6308653;20;2855494;-42
2024/01/07 01:05:06;;;;;;;;;50.00;39.00;;;;;6.45;100.00;98177.38;6276482;20;2824324;-40
2024/01/07 01:07:36;;;;;;;;;48.00;40.67;;;;;6.50;100.00;98169.91;6273480;20;2860713;-42
2024/01/07 01:10:06;;;;;;;;;56.67;41.33;;;;;6.50;100.00;98161.94;6306669;20;3623792;-40
2024/01/07 01:12:35;;;;;;;;;49.50;38.00;;;;;6.44;100.00;98167.69;6273926;20;2855523;-43
2024/01/07 01:15:03;;;;;;;;;47.00;39.00;;;;;6.47;100.00;98167.47;6273554;20;2496158;-43
2024/01/07 01:17:32;;;;;;;;;44.00;38.50;;;;;6.64;100.00;98168.97;6275682;20;2854548;-43
2024/01/07 01:20:01;;;;;;;;;48.00;38.00;;;;;6.64;100.00;98169.84;6276257;20;2851394;-42
2024/01/07 01:22:30;;;;;;;;;46.50;38.00;;;;;6.46;100.00;98160.44;6271090;20;2868061;-42
2024/01/07 01:24:58;;;;;;;;;39.00;37.00;;;;;6.60;100.00;98161.19;6275364;20;2850297;-42
2024/01/07 01:27:28;;;;;;;;;37.67;33.33;;;;;6.64;100.00;98153.84;6275165;20;3596100;-43
2024/01/07 01:29:57;;;;;;;;;50.50;38.00;;;;;6.63;100.00;98156.59;6305792;20;2855567;-43
2024/01/07 01:32:25;;;;;;;;;48.33;38.00;;;;;6.48;100.00;98148.72;6278414;20;3590904;-44
2024/01/07 01:34:54;;;;;;;;;44.50;39.00;;;;;6.49;100.00;98149.56;6274077;20;2838820;-42
2024/01/07 01:37:24;;;;;;;;;50.00;38.00;;;;;6.50;100.00;98145.94;6274941;20;3597264;-45
2024/01/07 01:39:53;;;;;;;;;53.67;38.33;;;;;6.58;100.00;98148.91;6306945;20;2874333;-42
2024/01/07 01:42:23;;;;;;;;;41.00;36.00;;;;;6.52;100.00;98154.69;6306562;20;3607574;-45
2024/01/07 01:44:56;;;;;;;;;46.50;37.50;;;;;6.45;100.00;98145.38;6305523;20;2856986;-42
2024/01/07 01:47:26;;;;;;;;;36.67;34.00;;;;;6.55;100.00;98149.13;6272694;20;2860825;-49
2024/01/07 01:49:55;;;;;;;;;44.50;38.00;;;;;6.66;100.00;98145.72;6300788;20;2857087;-43
2024/01/07 01:52:25;;;;;;;;;45.00;35.67;;;;;6.54;100.00;98147.44;6274329;20;2861781;-43
2024/01/07 01:54:55;;;;;;;;;41.33;36.67;;;;;6.66;100.00;98145.72;6306625;20;3592970;-42
2024/01/07 01:57:36;;;;;;;;;50.67;39.00;;;;;6.59;100.00;98147.97;6271540;20;2869032;-42
2024/01/07 02:00:08;;;;;;;;;43.33;36.00;;;;;6.57;100.00;98147.22;6304495;20;2875404;-42
2024/01/07 02:02:37;;;;;;;;;41.67;35.33;;;;;6.77;100.00;98140.50;6308321;20;3599243;-44
2024/01/07 02:05:06;;;;;;;;;39.50;37.50;;;;;6.51;100.00;98142.31;6273561;20;2854568;-42
2024/01/07 02:07:35;;;;;;;;;45.00;37.00;;;;;6.56;100.00;98134.84;6275821;20;2843125;-43
2024/01/07 02:10:05;;;;;;;;;38.00;31.00;;;;;6.46;100.00;98136.44;6273495;20;3622267;-42
2024/01/07 02:12:35;;;;;;;;;35.00;32.33;;;;;6.59;100.00;98134.63;6304482;20;3605618;-43
2024/01/07 02:15:05;;;;;;;;;38.67;35.00;;;;;6.58;100.00;98130.25;6276626;20;2873335;-44
2024/01/07 02:17:35;;;;;;;;;40.33;32.67;;;;;6.61;100.00;98127.38;6304819;20;3624278;-42
2024/01/07 02:20:05;;;;;;;;;47.33;37.00;;;;;6.61;100.00;98127.38;6307480;20;3612887;-43
2024/01/07 02:22:34;;;;;;;;;34.00;30.33;;;;;6.50;100.00;98124.59;6275634;20;2857674;-43
2024/01/07 02:25:03;;;;;;;;;29.00;28.50;;;;;6.52;100.00;98130.69;6305772;20;2852389;-42
2024/01/07 02:27:33;;;;;;;;;46.67;36.00;;;;;6.66;100.00;98129.69;6274128;20;2868121;-42
2024/01/07 02:30:03;;;;;;;;;39.33;30.33;;;;;6.55;100.00;98123.31;6304134;20;3611750;-43
2024/01/07 02:32:35;;;;;;;;;41.00;36.00;;;;;6.59;100.00;98123.97;6306424;20;3606549;-42
2024/01/07 02:35:06;;;;;;;;;43.00;34.67;;;;;6.59;100.00;98118.63;6273617;20;3629446;-42
2024/01/07 02:37:35;;;;;;;;;42.33;36.33;;;;;6.61;100.00;98116.72;6307146;20;3613276;-42
2024/01/07 02:40:05;;;;;;;;;42.00;34.00;;;;;6.63;100.00;98114.78;6275635;20;2859780;-42
2024/01/07 02:42:34;;;;;;;;;42.67;33.67;;;;;6.58;100.00;98115.13;6309599;20;3627417;-42
2024/01/07 02:45:04;;;;;;;;;44.00;37.50;;;;;6.87;100.00;98111.31;6271803;20;2841507;-42
2024/01/07 02:47:33;;;;;;;;;44.33;36.67;;;;;6.79;100.00;98106.53;6270341;20;2864045;-43
2024/01/07 02:50:03;;;;;;;;;39.67;33.67;;;;;6.65;100.00;98112.84;6303393;20;3610708;-42
2024/01/07 02:52:32;;;;;;;;;45.00;34.67;;;;;6.71;100.00;98107.06;6274237;20;3631529;-42
2024/01/07 02:55:02;;;;;;;;;38.00;36.33;;;;;6.68;100.00;98106.44;6301355;20;2850497;-43
2024/01/07 02:57:32;;;;;;;;;36.00;32.33;;;;;6.63;100.00;98104.09;6302956;20;2858710;-42
2024/01/07 03:00:01;;;;;;;;;41.00;37.00;;;;;6.58;100.00;98100.91;6306297;20;3610674;-42
2024/01/07 03:02:30;;;;;;;;;35.67;33.00;;;;;6.65;100.00;98093.34;6271675;20;2862799;-41
2024/01/07 03:04:59;;;;;;;;;31.67;31.67;;;;;6.58;100.00;98101.78;6308743;20;3596108;-41
2024/01/07 03:07:29;;;;;;;;;37.67;35.00;;;;;6.63;100.00;98090.78;6276790;20;2856715;-42
2024/01/07 03:09:58;;;;;;;;;38.67;34.00;;;;;6.65;100.00;98098.69;6307387;20;3610709;-42
2024/01/07 03:12:28;;;;;;;;;36.67;34.33;;;;;6.78;100.00;98095.00;6309479;20;3610708;-41
2024/01/07 03:14:57;;;;;;;;;29.00;28.00;;;;;6.60;100.00;98093.66;6309502;20;2848191;-42
2024/01/07 03:17:26;;;;;;;;;32.67;29.67;;;;;6.68;100.00;98088.63;6276223;20;2852357;-44
2024/01/07 03:19:55;;;;;;;;;38.00;27.33;;;;;6.67;100.00;98086.09;6309500;20;3606539;-42
2024/01/07 03:22:25;;;;;;;;;34.67;32.00;;;;;6.64;100.00;98095.16;6277236;20;2873250;-42
2024/01/07 03:24:53;;;;;;;;;28.00;26.50;;;;;6.55;100.00;98096.66;6308376;20;2845342;-42
2024/01/07 03:27:22;;;;;;;;;32.00;28.00;;;;;6.60;100.00;98091.00;6278252;20;2836776;-43
2024/01/07 03:29:51;;;;;;;;;34.00;29.00;;;;;6.65;100.00;98096.84;6276637;20;2858602;-42
2024/01/07 03:32:20;;;;;;;;;32.00;25.50;;;;;6.67;100.00;98089.59;6276781;20;2848231;-42
2024/01/07 03:34:49;;;;;;;;;27.00;21.00;;;;;6.69;100.00;98093.03;6278182;20;2837780;-42
2024/01/07 03:37:18;;;;;;;;;34.00;29.00;;;;;6.67;100.00;98086.94;6278626;20;2854459;-42
2024/01/07 03:39:48;;;;;;;;;28.50;27.50;;;;;6.67;100.00;98086.94;6276598;20;2844008;-42
2024/01/07 03:42:17;;;;;;;;;34.00;28.50;;;;;6.78;100.00;98087.00;6277142;20;2849269;-42
2024/01/07 03:44:45;;;;;;;;;27.50;21.50;;;;;6.76;100.00;98091.59;6276433;20;2849675;-43
2024/01/07 03:47:14;;;;;;;;;32.50;26.50;;;;;6.66;100.00;98087.91;6276992;20;2849463;-43
2024/01/07 03:49:43;;;;;;;;;25.50;25.00;;;;;6.66;100.00;98093.25;6276961;20;2841063;-42
2024/01/07 03:52:10;;;;;;;;;23.00;22.00;;;;;6.69;100.00;98093.03;6275188;20;2498271;-42
2024/01/07 03:54:39;;;;;;;;;27.50;24.50;;;;;6.70;100.00;98092.03;6275021;20;2848198;-42
2024/01/07 03:57:08;;;;;;;;;26.50;25.00;;;;;6.73;100.00;98093.66;6277981;20;2840902;-40
2024/01/07 03:59:36;;;;;;;;;27.00;21.00;;;;;6.70;100.00;98094.72;6273367;20;2500396;-40
2024/01/07 04:02:04;;;;;;;;;24.50;22.00;;;;;6.80;100.00;98095.75;6276871;20;2832696;-40
2024/01/07 04:04:33;;;;;;;;;27.00;24.00;;;;;6.72;100.00;98092.78;6274960;20;2850321;-41
2024/01/07 04:07:02;;;;;;;;;19.50;19.50;;;;;6.79;100.00;98087.84;6277851;20;2844191;-40
2024/01/07 04:09:30;;;;;;;;;25.50;23.00;;;;;6.69;100.00;98087.69;6275167;20;2498289;-41
2024/01/07 04:11:59;;;;;;;;;24.00;23.00;;;;;6.85;100.00;98091.94;6277170;20;2850379;-40
2024/01/07 04:14:27;;;;;;;;;25.50;22.00;;;;;6.81;100.00;98093.94;6272428;20;2500299;-40
2024/01/07 04:16:55;;;;;;;;;23.00;22.00;;;;;6.79;100.00;98096.75;6275641;20;2500285;-40
2024/01/07 04:19:24;;;;;;;;;18.33;18.33;;;;;6.88;100.00;98105.88;6279350;20;3565014;-42
2024/01/07 04:21:52;;;;;;;;;18.33;14.00;;;;;6.82;100.00;98101.84;6271989;20;3525446;-40
2024/01/07 04:24:21;;;;;;;;;15.33;15.33;;;;;6.85;100.00;98102.59;6306461;20;3553385;-40
2024/01/07 04:26:49;;;;;;;;;28.00;21.00;;;;;6.92;100.00;98094.00;6276599;20;2500265;-40
2024/01/07 04:29:17;;;;;;;;;20.00;20.00;;;;;6.79;100.00;98099.41;6275380;20;2491923;-40
2024/01/07 04:31:45;;;;;;;;;22.00;22.00;;;;;6.99;100.00;98105.09;6276605;20;2500411;-40
2024/01/07 04:34:14;;;;;;;;;16.00;16.00;;;;;6.93;100.00;98105.56;6277230;20;3552471;-41
2024/01/07 04:36:43;;;;;;;;;20.67;18.33;;;;;6.92;100.00;98109.19;6276527;20;3561782;-43
2024/01/07 04:39:10;;;;;;;;;20.00;17.50;;;;;6.95;100.00;98104.50;6310474;20;2823201;-43
2024/01/07 04:41:38;;;;;;;;;19.50;17.50;;;;;6.94;100.00;98099.25;6276613;20;2833575;-41
2024/01/07 04:44:10;;;;;;;;;17.00;12.50;;;;;6.93;100.00;98106.41;6277404;20;2808623;-44
2024/01/07 04:46:39;;;;;;;;;22.00;16.50;;;;;6.94;100.00;98099.25;6278543;20;2823191;-44
2024/01/07 04:49:08;;;;;;;;;25.00;20.33;;;;;6.93;100.00;98105.56;6276985;20;3577329;-42
2024/01/07 04:51:37;;;;;;;;;20.00;20.00;;;;;6.98;100.00;98103.41;6275125;20;3557629;-41
2024/01/07 04:54:05;;;;;;;;;14.50;13.00;;;;;7.02;100.00;98099.53;6309873;20;2809708;-41
2024/01/07 04:56:34;;;;;;;;;15.00;15.00;;;;;6.98;100.00;98106.94;6276696;20;3548290;-41
2024/01/07 04:59:02;;;;;;;;;15.00;13.50;;;;;6.91;100.00;98102.16;6311271;20;2788862;-41
2024/01/07 05:01:33;;;;;;;;;20.00;16.00;;;;;7.03;100.00;98107.44;6276558;20;3577348;-41
2024/01/07 05:04:05;;;;;;;;;13.00;13.00;;;;;7.01;100.00;98105.84;6275181;20;2790940;-41
2024/01/07 05:06:33;;;;;;;;;14.00;11.00;;;;;7.08;100.00;98101.75;6281447;20;2788882;-41
2024/01/07 05:09:02;;;;;;;;;19.33;17.00;;;;;7.14;100.00;98109.34;6277469;20;3572152;-43
2024/01/07 05:11:30;;;;;;;;;16.50;14.00;;;;;7.19;100.00;98101.00;6306596;20;2812804;-41
2024/01/07 05:13:57;;;;;;;;;13.00;13.00;;;;;7.01;100.00;98100.53;6273939;20;2796247;-43
2024/01/07 05:16:25;;;;;;;;;14.00;11.00;;;;;6.97;100.00;98101.69;6275539;20;2791070;-42
2024/01/07 05:18:55;;;;;;;;;15.20;14.00;;;;;7.10;100.00;98107.00;6302134;20;2807642;-42
2024/01/07 05:21:23;;;;;;;;;9.00;9.00;;;;;7.10;100.00;98101.66;6277364;20;2739935;-42
2024/01/07 05:23:50;;;;;;;;;12.50;11.50;;;;;7.04;100.00;98103.81;6272255;20;2786763;-43
2024/01/07 05:26:18;;;;;;;;;10.50;10.50;;;;;7.02;100.00;98104.88;6274489;20;2782623;-42
2024/01/07 05:28:48;;;;;;;;;12.20;10.60;;;;;7.12;100.00;98100.59;6300571;20;2790884;-42
2024/01/07 05:31:18;;;;;;;;;9.00;8.40;;;;;7.04;100.00;98092.28;6300116;20;2766235;-44
2024/01/07 05:33:48;;;;;;;;;12.00;12.00;;;;;7.13;100.00;98102.28;6326566;20;2796089;-42
2024/01/07 05:36:16;;;;;;;;;13.50;13.00;;;;;7.05;100.00;98096.66;6275523;20;2786781;-42
2024/01/07 05:38:44;;;;;;;;;15.67;12.00;;;;;7.07;100.00;98105.41;6276601;20;3522179;-42
2024/01/07 05:41:12;;;;;;;;;11.00;10.00;;;;;7.13;100.00;98107.63;6313554;20;2675308;-42
2024/01/07 05:43:40;;;;;;;;;15.50;12.00;;;;;7.17;100.00;98109.09;6305879;20;2796116;-42
2024/01/07 05:46:08;;;;;;;;;19.67;16.33;;;;;7.11;100.00;98104.22;6276559;20;3549333;-42
2024/01/07 05:48:45;;;;;;;;;12.67;12.67;;;;;7.04;100.00;98094.97;6274253;20;3542032;-42
2024/01/07 05:51:14;;;;;;;;;18.00;11.00;;;;;6.99;100.00;98089.94;6275547;20;2798253;-44
2024/01/07 05:53:45;;;;;;;;;13.33;12.00;;;;;6.97;100.00;98101.69;6273927;20;2792065;-41
2024/01/07 05:56:13;;;;;;;;;10.00;10.00;;;;;7.01;100.00;98093.38;6304558;20;3508652;-40
2024/01/07 05:58:43;;;;;;;;;11.00;10.40;;;;;7.00;100.00;98101.47;6329449;20;2794441;-42
2024/01/07 06:01:18;;;;;;;;;15.00;14.00;;;;;7.09;100.00;98103.47;6276240;20;2804451;-42
2024/01/07 06:03:47;;;;;;;;;13.00;11.50;;;;;6.99;100.00;98105.09;6273481;20;2786741;-42
2024/01/07 06:06:16;;;;;;;;;13.50;13.50;;;;;7.03;100.00;98098.59;6277610;20;2800319;-43
2024/01/07 06:08:45;;;;;;;;;37.00;34.00;;;;;6.98;100.00;98100.75;6272187;20;2868040;-43
2024/01/07 06:11:20;;;;;;;;;14.67;14.67;;;;;7.11;100.00;98109.56;6273473;20;3541042;-43
2024/01/07 06:13:48;;;;;;;;;11.67;11.00;;;;;6.98;100.00;98104.25;6304311;20;2787768;-43
2024/01/07 06:16:16;;;;;;;;;15.00;9.00;;;;;6.98;100.00;98116.75;6307765;20;2770175;-42
2024/01/07 06:18:46;;;;;;;;;11.80;10.00;;;;;7.04;100.00;98108.31;6302499;20;2795157;-42
2024/01/07 06:21:15;;;;;;;;;17.67;17.67;;;;;6.98;100.00;98112.28;6274525;20;3553416;-41
2024/01/07 06:23:43;;;;;;;;;9.50;9.50;;;;;6.98;100.00;98109.59;6272951;20;2771114;-42
2024/01/07 06:26:12;;;;;;;;;16.20;12.40;;;;;6.92;100.00;98114.50;6299679;20;2795070;-41
2024/01/07 06:28:40;;;;;;;;;10.00;10.00;;;;;6.96;100.00;98108.00;6274616;20;2779534;-43
2024/01/07 06:31:09;;;;;;;;;14.33;14.33;;;;;6.95;100.00;98114.28;6273708;20;3528401;-42
2024/01/07 06:33:37;;;;;;;;;14.67;12.67;;;;;7.09;100.00;98110.63;6301171;20;3532614;-42
2024/01/07 06:36:06;;;;;;;;;13.67;11.33;;;;;7.03;100.00;98117.28;6306077;20;2790023;-42
2024/01/07 06:38:35;;;;;;;;;13.67;11.33;;;;;7.05;100.00;98112.66;6310759;20;2789924;-44
2024/01/07 06:41:04;;;;;;;;;20.50;16.00;;;;;7.08;100.00;98115.09;6314760;20;2817988;-42
2024/01/07 06:43:33;;;;;;;;;16.00;16.00;;;;;6.99;100.00;98107.78;6279210;20;3544021;-42
2024/01/07 06:46:02;;;;;;;;;25.00;25.00;;;;;6.93;100.00;98117.09;6309874;20;2848240;-42
2024/01/07 06:48:31;;;;;;;;;24.67;22.00;;;;;7.04;100.00;98111.81;6279956;20;3565366;-43
2024/01/07 06:51:00;;;;;;;;;22.00;18.00;;;;;7.00;100.00;98110.34;6278655;20;2826409;-42
2024/01/07 06:53:29;;;;;;;;;16.33;13.00;;;;;7.19;100.00;98112.53;6276721;20;3540025;-42
2024/01/07 06:55:57;;;;;;;;;20.33;16.00;;;;;6.98;100.00;98111.44;6276256;20;3551295;-42
2024/01/07 06:58:26;;;;;;;;;24.50;23.00;;;;;7.00;100.00;98114.81;6309622;20;2839838;-45
2024/01/07 07:00:54;;;;;;;;;15.00;14.00;;;;;7.12;100.00;98115.75;6282004;20;2809691;-47
2024/01/07 07:03:23;;;;;;;;;16.00;15.00;;;;;7.02;100.00;98110.22;6278551;20;2802462;-42
2024/01/07 07:05:51;;;;;;;;;16.00;14.00;;;;;7.11;100.00;98114.03;6308236;20;3527335;-41
2024/01/07 07:08:20;;;;;;;;;18.00;16.33;;;;;7.05;100.00;98112.66;6311647;20;3549221;-42
2024/01/07 07:10:49;;;;;;;;;20.00;17.50;;;;;7.10;100.00;98117.66;6276768;20;2825412;-41
2024/01/07 07:13:17;;;;;;;;;30.00;25.00;;;;;7.16;100.00;98118.09;6277664;20;2837744;-41
2024/01/07 07:15:45;;;;;;;;;22.50;17.00;;;;;7.02;100.00;98121.75;6275769;20;2500410;-41
2024/01/07 07:18:14;;;;;;;;;21.00;18.50;;;;;7.03;100.00;98117.28;6280495;20;2832638;-46
2024/01/07 07:20:42;;;;;;;;;30.00;29.00;;;;;7.00;100.00;98126.34;6281525;20;2738405;-42
2024/01/07 07:23:11;;;;;;;;;15.67;14.67;;;;;7.09;100.00;98121.31;6275988;20;3550367;-42
2024/01/07 07:25:40;;;;;;;;;13.80;13.40;;;;;6.99;100.00;98121.97;6301779;20;2809756;-42
2024/01/07 07:28:09;;;;;;;;;14.67;14.67;;;;;7.12;100.00;98132.59;6277919;20;3536804;-42
2024/01/07 07:30:37;;;;;;;;;19.00;17.50;;;;;7.01;100.00;98124.53;6311144;20;2820193;-40
2024/01/07 07:33:05;;;;;;;;;14.00;12.00;;;;;7.03;100.00;98122.63;6278217;20;2793810;-41
2024/01/07 07:35:34;;;;;;;;;15.00;15.00;;;;;6.99;100.00;98129.97;6278830;20;3537798;-42
2024/01/07 07:38:03;;;;;;;;;17.00;14.00;;;;;7.00;100.00;98128.16;6333818;20;2814895;-42
2024/01/07 07:40:32;;;;;;;;;18.00;16.00;;;;;7.09;100.00;98127.50;6280126;20;2819083;-52
2024/01/07 07:42:59;;;;;;;;;21.00;15.50;;;;;7.08;100.00;98131.13;6282259;20;2815904;-50
2024/01/07 07:45:28;;;;;;;;;18.33;16.00;;;;;7.19;100.00;98128.53;6275610;20;3556504;-48
2024/01/07 07:47:56;;;;;;;;;23.00;18.50;;;;;7.15;100.00;98143.06;6311171;20;2833716;-47
2024/01/07 07:50:25;;;;;;;;;19.67;13.67;;;;;7.07;100.00;98134.75;6277802;20;3540951;-52
2024/01/07 07:52:54;;;;;;;;;17.67;16.00;;;;;7.14;100.00;98144.03;6308796;20;3548169;-50
2024/01/07 07:55:22;;;;;;;;;15.33;14.00;;;;;7.04;100.00;98135.84;6307544;20;3540883;-47
2024/01/07 07:57:51;;;;;;;;;15.50;14.00;;;;;7.20;100.00;98138.25;6310604;20;2816942;-48
2024/01/07 08:00:20;;;;;;;;;15.67;12.00;;;;;7.18;100.00;98137.50;6278356;20;3537879;-47
2024/01/07 08:02:48;;;;;;;;;17.00;13.00;;;;;7.31;100.00;98136.59;6278691;20;2818078;-48
2024/01/07 08:05:16;;;;;;;;;16.50;12.00;;;;;7.67;100.00;98149.91;6281906;20;2793110;-49
2024/01/07 08:07:46;;;;;;;;;16.20;15.20;;;;;7.38;100.00;98144.06;6306480;20;2810844;-46
2024/01/07 08:10:16;;;;;;;;;13.60;13.60;;;;;7.31;100.00;98150.81;6303810;20;2804602;-49
2024/01/07 08:12:44;;;;;;;;;16.67;15.33;;;;;7.45;100.00;98152.44;6277342;20;3534820;-46
2024/01/07 08:15:12;;;;;;;;;9.00;9.00;;;;;7.64;100.00;98154.66;6310070;20;2738877;-48
2024/01/07 08:17:41;;;;;;;;;24.67;22.33;;;;;7.52;100.00;98151.03;6305845;20;3580518;-47
2024/01/07 08:20:11;;;;;;;;;14.67;14.67;;;;;7.50;100.00;98157.47;6308899;20;2806629;-50
2024/01/07 08:22:39;;;;;;;;;17.50;17.50;;;;;7.62;100.00;98153.91;6308042;20;2496104;-48
2024/01/07 08:25:07;;;;;;;;;19.50;17.50;;;;;7.79;100.00;98155.31;6275649;20;2500313;-47
2024/01/07 08:27:37;;;;;;;;;24.00;22.50;;;;;7.46;100.00;98151.50;6276717;20;2838996;-48
2024/01/07 08:30:07;;;;;;;;;14.67;11.67;;;;;7.34;100.00;98147.06;6274899;20;2789985;-47
2024/01/07 08:32:35;;;;;;;;;12.00;12.00;;;;;7.40;100.00;98151.97;6312426;20;2794071;-47
2024/01/07 08:35:03;;;;;;;;;12.00;10.00;;;;;7.34;100.00;98153.25;6278030;20;2500463;-48
2024/01/07 08:37:31;;;;;;;;;21.50;17.50;;;;;7.23;100.00;98151.34;6276304;20;2505946;-47
2024/01/07 08:39:59;;;;;;;;;13.00;11.00;;;;;7.11;100.00;98157.59;6273942;20;2791946;-49
2024/01/07 08:42:30;;;;;;;;;50.50;44.00;;;;;7.26;100.00;98161.81;6302696;20;2496094;-49
2024/01/07 08:45:00;;;;;;;;;44.50;40.50;;;;;7.39;100.00;98158.25;6277295;20;2857623;-46
2024/01/07 08:47:31;;;;;;;;;13.67;11.67;;;;;7.25;100.00;98165.47;6274938;20;3527479;-49
2024/01/07 08:50:05;;;;;;;;;11.33;10.00;;;;;7.40;100.00;98171.50;6307278;20;3505466;-49
2024/01/07 08:52:35;;;;;;;;;94.33;88.33;;;;;7.29;100.00;98170.56;6306727;20;3676379;-47
2024/01/07 08:55:06;;;;;;;;;27.50;26.00;;;;;7.38;100.00;98177.91;6273758;20;2843002;-54
2024/01/07 08:57:35;;;;;;;;;20.33;20.33;;;;;7.33;100.00;98178.25;6275210;20;3572245;-52
2024/01/07 09:00:07;;;;;;;;;18.50;17.00;;;;;7.32;100.00;98181.03;6300124;20;2824347;-53
2024/01/07 09:02:36;;;;;;;;;15.67;12.00;;;;;7.29;100.00;98179.41;6275325;20;3516056;-53
2024/01/07 09:05:11;;;;;;;;;22.00;20.33;;;;;7.45;100.00;98177.38;6303921;20;3579453;-52
2024/01/07 09:07:44;;;;;;;;;11.14;10.71;;;;;7.34;100.00;98179.09;6346353;20;1812897;-53
2024/01/07 09:10:13;;;;;;;;;14.00;11.00;;;;;7.58;100.00;98182.66;6309730;20;2816982;-52
2024/01/07 09:12:41;;;;;;;;;12.00;12.00;;;;;7.52;100.00;98187.59;6275856;20;2814974;-56
2024/01/07 09:15:12;;;;;;;;;10.14;10.14;;;;;7.32;100.00;98184.56;6316930;20;1808025;-53
2024/01/07 09:17:41;;;;;;;;;32.00;30.00;;;;;7.26;100.00;98180.50;6304742;20;3585670;-53
2024/01/07 09:20:11;;;;;;;;;11.00;10.50;;;;;7.47;100.00;98174.56;6276796;20;2800318;-51
2024/01/07 09:22:40;;;;;;;;;12.33;12.00;;;;;7.35;100.00;98175.47;6273189;20;3529447;-49
2024/01/07 09:25:09;;;;;;;;;34.67;32.00;;;;;7.36;100.00;98182.50;6301150;20;3584709;-50
2024/01/07 09:27:38;;;;;;;;;31.00;30.50;;;;;7.51;100.00;98181.41;6267769;20;2834830;-53
2024/01/07 09:30:10;;;;;;;;;24.67;24.67;;;;;7.39;100.00;98175.13;6269580;20;2847210;-49
2024/01/07 09:32:39;;;;;;;;;33.67;31.33;;;;;7.48;100.00;98166.47;6303637;20;3592970;-54
2024/01/07 09:35:08;;;;;;;;;14.50;12.00;;;;;7.60;100.00;98169.19;6269020;20;2800290;-51
2024/01/07 09:37:36;;;;;;;;;17.00;15.00;;;;;7.41;100.00;98165.19;6268246;20;3548325;-51
2024/01/07 09:40:06;;;;;;;;;24.00;20.50;;;;;7.42;100.00;98171.38;6303285;20;2839881;-50
2024/01/07 09:42:35;;;;;;;;;53.50;44.50;;;;;7.59;100.00;98168.34;6275611;20;2862326;-51
2024/01/07 09:45:04;;;;;;;;;22.50;19.50;;;;;7.83;100.00;98171.00;6270330;20;2500297;-50
2024/01/07 09:47:35;;;;;;;;;36.00;33.67;;;;;8.01;100.00;98160.75;6274629;20;2846107;-54
2024/01/07 09:50:05;;;;;;;;;24.67;24.67;;;;;7.91;100.00;98160.59;6303822;20;3578486;-50
2024/01/07 09:52:33;;;;;;;;;31.33;25.67;;;;;8.24;100.00;98158.13;6308158;20;3590861;-51
2024/01/07 09:55:04;;;;;;;;;29.67;25.00;;;;;8.34;100.00;98159.13;6270485;20;2850269;-52
2024/01/07 09:57:33;;;;;;;;;26.33;23.33;;;;;8.52;100.00;98157.75;6306115;20;3580454;-52
2024/01/07 10:00:04;;;;;;;;;24.50;21.00;;;;;8.50;100.00;98154.31;6271563;20;2833614;-55
2024/01/07 10:02:33;;;;;;;;;41.00;32.50;;;;;8.54;100.00;98157.63;6273652;20;2860821;-53
2024/01/07 10:05:02;;;;;;;;;21.00;20.00;;;;;8.57;100.00;98152.03;6271264;20;2836930;-53
2024/01/07 10:07:32;;;;;;;;;26.00;23.00;;;;;8.46;100.00;98160.91;6273643;20;2829527;-53
2024/01/07 10:10:18;;;;;;;;;24.00;22.67;;;;;8.49;100.00;98157.13;6273612;20;2850311;-54
2024/01/07 10:12:47;;;;;;;;;16.50;14.00;;;;;8.48;100.00;98160.78;6302863;20;2494074;-55
2024/01/07 10:15:15;;;;;;;;;15.33;14.33;;;;;8.50;100.00;98151.66;6273707;20;3544406;-53
2024/01/07 10:17:45;;;;;;;;;15.67;15.00;;;;;8.54;100.00;98152.28;6270742;20;3540874;-53
2024/01/07 10:20:16;;;;;;;;;20.67;20.33;;;;;8.55;100.00;98151.31;6273745;20;3579518;-55
2024/01/07 10:22:52;;;;;;;;;17.67;17.67;;;;;8.48;100.00;98144.75;6272852;20;3565924;-52
2024/01/07 10:25:20;;;;;;;;;20.00;18.00;;;;;8.54;100.00;98144.25;6272712;20;2500302;-53
2024/01/07 10:27:49;;;;;;;;;17.67;16.00;;;;;8.50;100.00;98142.78;6274107;20;3551471;-51
2024/01/07 10:30:17;;;;;;;;;22.00;18.00;;;;;8.47;100.00;98143.88;6272003;20;2498319;-52
2024/01/07 10:32:47;;;;;;;;;32.00;25.33;;;;;8.33;100.00;98141.41;6275687;20;3635780;-55
2024/01/07 10:35:22;;;;;;;;;24.33;21.33;;;;;8.26;100.00;98135.66;6306643;20;3566949;-52
2024/01/07 10:37:49;;;;;;;;;12.00;10.50;;;;;8.27;100.00;98145.41;6304682;20;2782767;-52
2024/01/07 10:40:18;;;;;;;;;28.00;23.00;;;;;8.37;100.00;98140.16;6274657;20;2839901;-52
2024/01/07 10:42:47;;;;;;;;;20.50;19.00;;;;;8.42;100.00;98140.69;6274078;20;2826348;-53
2024/01/07 10:45:15;;;;;;;;;24.00;18.00;;;;;8.34;100.00;98143.94;6273500;20;2500311;-52
2024/01/07 10:47:55;;;;;;;;;22.00;19.67;;;;;8.41;100.00;98136.34;6272222;20;3582278;-55
2024/01/07 10:50:23;;;;;;;;;19.00;18.00;;;;;8.43;100.00;98129.06;6268965;20;2774339;-53
2024/01/07 10:53:06;;;;;;;;;22.50;21.00;;;;;8.53;100.00;98126.50;6272434;20;2819059;-54
2024/01/07 10:55:36;;;;;;;;;22.00;22.00;;;;;8.30;100.00;98128.28;6269470;20;2785715;-53
2024/01/07 10:58:05;;;;;;;;;14.00;14.00;;;;;8.22;100.00;98122.66;6271415;20;2805523;-51
2024/01/07 11:00:34;;;;;;;;;17.00;16.00;;;;;8.29;100.00;98122.06;6273105;20;2824341;-52
2024/01/07 11:03:48;;;;;;;;;16.33;16.33;;;;;8.25;100.00;98122.41;6270179;20;3552351;-55
2024/01/07 11:06:35;;;;;;;;;18.00;18.00;;;;;8.43;100.00;98118.34;6268853;20;3560707;-53
2024/01/07 11:09:26;;;;;;;;;20.50;19.50;;;;;8.21;100.00;98115.59;6274381;20;2841993;-53
2024/01/07 11:11:56;;;;;;;;;13.33;12.00;;;;;8.09;100.00;98118.25;6272574;20;3514944;-54